sensor_id;sensor_type;location;lat;lon;timestamp;temperature;humidity
78297;DHT22;67555;47.660;19.622;2023-07-29T00:01:52;20.10;95.10
78297;DHT22;67555;47.660;19.622;2023-07-29T00:04:19;20.20;94.90
78297;DHT22;67555;47.660;19.622;2023-07-29T00:06:45;20.10;95.00
78297;DHT22;67555;47.660;19.622;2023-07-29T00:09:11;20.20;94.90
78297;DHT22;67555;47.660;19.622;2023-07-29T00:11:38;20.20;94.80
78297;DHT22;67555;47.660;19.622;2023-07-29T00:14:03;20.20;94.70
78297;DHT22;67555;47.660;19.622;2023-07-29T00:16:29;20.10;94.60
78297;DHT22;67555;47.660;19.622;2023-07-29T00:18:55;20.10;94.90
78297;DHT22;67555;47.660;19.622;2023-07-29T00:21:21;20.10;95.00
78297;DHT22;67555;47.660;19.622;2023-07-29T00:23:46;20.10;95.00
78297;DHT22;67555;47.660;19.622;2023-07-29T00:26:12;20.00;95.00
78297;DHT22;67555;47.660;19.622;2023-07-29T00:28:39;20.00;94.90
78297;DHT22;67555;47.660;19.622;2023-07-29T00:31:05;20.00;94.90
78297;DHT22;67555;47.660;19.622;2023-07-29T00:33:30;20.00;94.70
78297;DHT22;67555;47.660;19.622;2023-07-29T00:35:56;20.00;94.60
78297;DHT22;67555;47.660;19.622;2023-07-29T00:38:22;20.00;94.40
78297;DHT22;67555;47.660;19.622;2023-07-29T00:40:48;20.00;94.30
78297;DHT22;67555;47.660;19.622;2023-07-29T00:43:15;20.00;94.30
78297;DHT22;67555;47.660;19.622;2023-07-29T00:45:41;20.00;94.30
78297;DHT22;67555;47.660;19.622;2023-07-29T00:48:08;20.10;94.20
78297;DHT22;67555;47.660;19.622;2023-07-29T00:50:34;20.10;94.20
78297;DHT22;67555;47.660;19.622;2023-07-29T00:53:01;20.10;94.20
78297;DHT22;67555;47.660;19.622;2023-07-29T00:55:29;20.10;94.30
78297;DHT22;67555;47.660;19.622;2023-07-29T00:57:55;20.10;94.20
78297;DHT22;67555;47.660;19.622;2023-07-29T01:00:22;20.10;94.20
78297;DHT22;67555;47.660;19.622;2023-07-29T01:02:48;20.10;94.20
78297;DHT22;67555;47.660;19.622;2023-07-29T01:05:16;20.10;94.20
78297;DHT22;67555;47.660;19.622;2023-07-29T01:08:14;20.10;94.30
78297;DHT22;67555;47.660;19.622;2023-07-29T01:13:30;20.00;94.20
78297;DHT22;67555;47.660;19.622;2023-07-29T01:16:08;20.00;94.10
78297;DHT22;67555;47.660;19.622;2023-07-29T01:18:39;20.00;94.20
78297;DHT22;67555;47.660;19.622;2023-07-29T01:21:08;20.00;94.20
78297;DHT22;67555;47.660;19.622;2023-07-29T01:23:35;19.90;94.10
78297;DHT22;67555;47.660;19.622;2023-07-29T01:26:03;19.90;94.00
78297;DHT22;67555;47.660;19.622;2023-07-29T01:28:29;19.80;94.00
78297;DHT22;67555;47.660;19.622;2023-07-29T01:31:18;19.70;94.00
78297;DHT22;67555;47.660;19.622;2023-07-29T01:33:53;19.70;93.90
78297;DHT22;67555;47.660;19.622;2023-07-29T01:36:22;19.70;93.90
78297;DHT22;67555;47.660;19.622;2023-07-29T01:38:51;19.70;93.90
78297;DHT22;67555;47.660;19.622;2023-07-29T01:41:18;19.70;93.90
78297;DHT22;67555;47.660;19.622;2023-07-29T01:43:45;19.60;94.00
78297;DHT22;67555;47.660;19.622;2023-07-29T01:46:12;19.60;94.00
78297;DHT22;67555;47.660;19.622;2023-07-29T01:48:39;19.50;94.00
78297;DHT22;67555;47.660;19.622;2023-07-29T01:51:05;19.50;94.10
78297;DHT22;67555;47.660;19.622;2023-07-29T01:53:32;19.40;94.20
78297;DHT22;67555;47.660;19.622;2023-07-29T01:55:57;19.40;94.10
78297;DHT22;67555;47.660;19.622;2023-07-29T01:58:24;19.40;94.00
78297;DHT22;67555;47.660;19.622;2023-07-29T02:00:49;19.40;93.90
78297;DHT22;67555;47.660;19.622;2023-07-29T02:03:15;19.40;93.90
78297;DHT22;67555;47.660;19.622;2023-07-29T02:05:41;19.40;93.90
78297;DHT22;67555;47.660;19.622;2023-07-29T02:08:12;19.30;93.90
78297;DHT22;67555;47.660;19.622;2023-07-29T02:10:37;19.30;94.00
78297;DHT22;67555;47.660;19.622;2023-07-29T02:13:04;19.30;94.10
78297;DHT22;67555;47.660;19.622;2023-07-29T02:15:29;19.20;94.20
78297;DHT22;67555;47.660;19.622;2023-07-29T02:17:55;19.20;94.20
78297;DHT22;67555;47.660;19.622;2023-07-29T02:20:21;19.20;94.20
78297;DHT22;67555;47.660;19.622;2023-07-29T02:22:47;19.20;94.10
78297;DHT22;67555;47.660;19.622;2023-07-29T02:25:14;19.10;94.10
78297;DHT22;67555;47.660;19.622;2023-07-29T02:27:40;19.10;94.30
78297;DHT22;67555;47.660;19.622;2023-07-29T02:30:06;19.10;94.30
78297;DHT22;67555;47.660;19.622;2023-07-29T02:32:32;19.10;94.20
78297;DHT22;67555;47.660;19.622;2023-07-29T02:34:57;19.00;94.10
78297;DHT22;67555;47.660;19.622;2023-07-29T02:37:23;19.00;94.00
78297;DHT22;67555;47.660;19.622;2023-07-29T02:39:49;19.00;94.10
78297;DHT22;67555;47.660;19.622;2023-07-29T02:42:14;18.90;94.00
78297;DHT22;67555;47.660;19.622;2023-07-29T02:44:40;18.80;94.20
78297;DHT22;67555;47.660;19.622;2023-07-29T02:47:06;18.80;94.40
78297;DHT22;67555;47.660;19.622;2023-07-29T02:49:31;18.80;94.50
78297;DHT22;67555;47.660;19.622;2023-07-29T02:51:57;18.70;94.50
78297;DHT22;67555;47.660;19.622;2023-07-29T02:54:23;18.70;94.50
78297;DHT22;67555;47.660;19.622;2023-07-29T02:56:50;18.70;94.30
78297;DHT22;67555;47.660;19.622;2023-07-29T02:59:16;18.50;94.40
78297;DHT22;67555;47.660;19.622;2023-07-29T03:01:42;18.40;94.70
78297;DHT22;67555;47.660;19.622;2023-07-29T03:04:08;18.30;94.80
78297;DHT22;67555;47.660;19.622;2023-07-29T03:06:33;18.20;95.00
78297;DHT22;67555;47.660;19.622;2023-07-29T03:08:59;18.10;95.10
78297;DHT22;67555;47.660;19.622;2023-07-29T03:11:25;18.10;94.90
78297;DHT22;67555;47.660;19.622;2023-07-29T03:13:50;18.10;94.70
78297;DHT22;67555;47.660;19.622;2023-07-29T03:16:17;18.10;94.70
78297;DHT22;67555;47.660;19.622;2023-07-29T03:18:43;18.10;94.80
78297;DHT22;67555;47.660;19.622;2023-07-29T03:21:10;18.00;95.00
78297;DHT22;67555;47.660;19.622;2023-07-29T03:23:36;18.00;95.00
78297;DHT22;67555;47.660;19.622;2023-07-29T03:26:03;18.00;95.10
78297;DHT22;67555;47.660;19.622;2023-07-29T03:28:39;18.00;95.20
78297;DHT22;67555;47.660;19.622;2023-07-29T03:31:05;18.10;95.20
78297;DHT22;67555;47.660;19.622;2023-07-29T03:33:31;18.10;95.20
78297;DHT22;67555;47.660;19.622;2023-07-29T03:35:57;18.10;95.10
78297;DHT22;67555;47.660;19.622;2023-07-29T03:38:23;18.10;95.00
78297;DHT22;67555;47.660;19.622;2023-07-29T03:40:48;18.00;94.90
78297;DHT22;67555;47.660;19.622;2023-07-29T03:43:14;18.00;94.90
78297;DHT22;67555;47.660;19.622;2023-07-29T03:45:40;17.90;95.20
78297;DHT22;67555;47.660;19.622;2023-07-29T03:48:06;17.90;95.30
78297;DHT22;67555;47.660;19.622;2023-07-29T03:50:34;17.80;95.40
78297;DHT22;67555;47.660;19.622;2023-07-29T03:53:06;17.80;95.50
78297;DHT22;67555;47.660;19.622;2023-07-29T03:55:32;17.90;95.50
78297;DHT22;67555;47.660;19.622;2023-07-29T03:57:58;18.00;95.40
78297;DHT22;67555;47.660;19.622;2023-07-29T04:00:25;18.00;95.40
78297;DHT22;67555;47.660;19.622;2023-07-29T04:02:51;18.00;95.30
78297;DHT22;67555;47.660;19.622;2023-07-29T04:05:17;18.00;95.30
78297;DHT22;67555;47.660;19.622;2023-07-29T04:07:42;18.00;95.40
78297;DHT22;67555;47.660;19.622;2023-07-29T04:10:09;18.00;95.30
78297;DHT22;67555;47.660;19.622;2023-07-29T04:12:35;18.00;95.30
78297;DHT22;67555;47.660;19.622;2023-07-29T04:15:01;18.00;95.30
78297;DHT22;67555;47.660;19.622;2023-07-29T04:17:27;18.00;95.40
78297;DHT22;67555;47.660;19.622;2023-07-29T04:19:52;18.10;95.40
78297;DHT22;67555;47.660;19.622;2023-07-29T04:22:18;18.10;95.30
78297;DHT22;67555;47.660;19.622;2023-07-29T04:24:44;18.10;95.20
78297;DHT22;67555;47.660;19.622;2023-07-29T04:27:09;18.20;95.10
78297;DHT22;67555;47.660;19.622;2023-07-29T04:29:35;18.30;95.00
78297;DHT22;67555;47.660;19.622;2023-07-29T04:32:04;18.40;94.80
78297;DHT22;67555;47.660;19.622;2023-07-29T04:34:31;18.50;94.70
78297;DHT22;67555;47.660;19.622;2023-07-29T04:36:57;18.70;94.60
78297;DHT22;67555;47.660;19.622;2023-07-29T04:39:22;18.80;94.40
78297;DHT22;67555;47.660;19.622;2023-07-29T04:41:48;18.90;94.30
78297;DHT22;67555;47.660;19.622;2023-07-29T04:44:14;18.90;94.00
78297;DHT22;67555;47.660;19.622;2023-07-29T04:46:40;18.90;94.10
78297;DHT22;67555;47.660;19.622;2023-07-29T04:49:06;18.90;94.30
78297;DHT22;67555;47.660;19.622;2023-07-29T04:51:32;18.90;94.50
78297;DHT22;67555;47.660;19.622;2023-07-29T04:53:58;19.00;94.50
78297;DHT22;67555;47.660;19.622;2023-07-29T04:56:24;19.00;94.40
78297;DHT22;67555;47.660;19.622;2023-07-29T04:58:50;19.00;94.50
78297;DHT22;67555;47.660;19.622;2023-07-29T05:01:16;19.10;94.50
78297;DHT22;67555;47.660;19.622;2023-07-29T05:03:41;19.10;94.60
78297;DHT22;67555;47.660;19.622;2023-07-29T05:06:07;19.30;94.60
78297;DHT22;67555;47.660;19.622;2023-07-29T05:08:33;19.40;94.50
78297;DHT22;67555;47.660;19.622;2023-07-29T05:10:59;19.50;94.30
78297;DHT22;67555;47.660;19.622;2023-07-29T05:13:24;19.70;94.10
78297;DHT22;67555;47.660;19.622;2023-07-29T05:15:50;19.80;93.90
78297;DHT22;67555;47.660;19.622;2023-07-29T05:18:17;19.90;93.70
78297;DHT22;67555;47.660;19.622;2023-07-29T05:20:44;20.00;93.50
78297;DHT22;67555;47.660;19.622;2023-07-29T05:23:10;20.10;93.40
78297;DHT22;67555;47.660;19.622;2023-07-29T05:25:36;20.30;93.30
78297;DHT22;67555;47.660;19.622;2023-07-29T05:28:02;20.30;93.20
78297;DHT22;67555;47.660;19.622;2023-07-29T05:30:29;20.50;93.20
78297;DHT22;67555;47.660;19.622;2023-07-29T05:33:03;20.50;93.20
78297;DHT22;67555;47.660;19.622;2023-07-29T05:35:28;20.60;93.00
78297;DHT22;67555;47.660;19.622;2023-07-29T05:37:54;20.70;93.00
78297;DHT22;67555;47.660;19.622;2023-07-29T05:40:21;20.80;93.00
78297;DHT22;67555;47.660;19.622;2023-07-29T05:42:47;20.90;93.00
78297;DHT22;67555;47.660;19.622;2023-07-29T05:45:13;21.00;93.20
78297;DHT22;67555;47.660;19.622;2023-07-29T05:47:39;21.00;93.10
78297;DHT22;67555;47.660;19.622;2023-07-29T05:50:08;21.10;93.10
78297;DHT22;67555;47.660;19.622;2023-07-29T05:52:34;21.20;93.00
78297;DHT22;67555;47.660;19.622;2023-07-29T05:55:00;21.30;92.90
78297;DHT22;67555;47.660;19.622;2023-07-29T05:57:26;21.40;92.90
78297;DHT22;67555;47.660;19.622;2023-07-29T05:59:52;21.50;92.90
78297;DHT22;67555;47.660;19.622;2023-07-29T06:02:17;21.50;92.90
78297;DHT22;67555;47.660;19.622;2023-07-29T06:04:43;21.70;92.80
78297;DHT22;67555;47.660;19.622;2023-07-29T06:07:09;21.80;92.60
78297;DHT22;67555;47.660;19.622;2023-07-29T06:09:34;21.90;92.50
78297;DHT22;67555;47.660;19.622;2023-07-29T06:12:00;22.00;92.40
78297;DHT22;67555;47.660;19.622;2023-07-29T06:14:26;22.10;92.30
78297;DHT22;67555;47.660;19.622;2023-07-29T06:16:52;22.20;92.10
78297;DHT22;67555;47.660;19.622;2023-07-29T06:19:19;22.30;92.00
78297;DHT22;67555;47.660;19.622;2023-07-29T06:21:46;22.40;91.60
78297;DHT22;67555;47.660;19.622;2023-07-29T06:24:11;22.50;91.40
78297;DHT22;67555;47.660;19.622;2023-07-29T06:26:37;22.60;91.20
78297;DHT22;67555;47.660;19.622;2023-07-29T06:29:03;22.80;91.00
78297;DHT22;67555;47.660;19.622;2023-07-29T06:31:28;22.90;90.80
78297;DHT22;67555;47.660;19.622;2023-07-29T06:33:55;23.10;90.80
78297;DHT22;67555;47.660;19.622;2023-07-29T06:36:22;23.20;90.50
78297;DHT22;67555;47.660;19.622;2023-07-29T06:38:48;23.30;90.20
78297;DHT22;67555;47.660;19.622;2023-07-29T06:41:14;23.50;90.00
78297;DHT22;67555;47.660;19.622;2023-07-29T06:43:39;23.60;89.70
78297;DHT22;67555;47.660;19.622;2023-07-29T06:46:06;23.60;89.30
78297;DHT22;67555;47.660;19.622;2023-07-29T06:48:32;23.60;89.10
78297;DHT22;67555;47.660;19.622;2023-07-29T06:50:58;23.60;89.10
78297;DHT22;67555;47.660;19.622;2023-07-29T06:53:26;23.60;89.10
78297;DHT22;67555;47.660;19.622;2023-07-29T06:55:52;23.60;89.10
78297;DHT22;67555;47.660;19.622;2023-07-29T06:58:18;23.60;88.90
78297;DHT22;67555;47.660;19.622;2023-07-29T07:00:44;23.60;88.80
78297;DHT22;67555;47.660;19.622;2023-07-29T07:03:11;23.60;88.40
78297;DHT22;67555;47.660;19.622;2023-07-29T07:05:37;23.60;87.60
78297;DHT22;67555;47.660;19.622;2023-07-29T07:08:03;23.60;87.50
78297;DHT22;67555;47.660;19.622;2023-07-29T07:10:28;23.70;87.20
78297;DHT22;67555;47.660;19.622;2023-07-29T07:12:54;23.80;86.30
78297;DHT22;67555;47.660;19.622;2023-07-29T07:15:20;23.80;85.50
78297;DHT22;67555;47.660;19.622;2023-07-29T07:17:46;24.00;85.00
78297;DHT22;67555;47.660;19.622;2023-07-29T07:20:12;24.00;85.40
78297;DHT22;67555;47.660;19.622;2023-07-29T07:22:37;24.20;84.30
78297;DHT22;67555;47.660;19.622;2023-07-29T07:25:04;24.30;83.10
78297;DHT22;67555;47.660;19.622;2023-07-29T07:27:30;24.40;81.50
78297;DHT22;67555;47.660;19.622;2023-07-29T07:29:56;24.40;80.10
78297;DHT22;67555;47.660;19.622;2023-07-29T07:32:22;24.60;82.00
78297;DHT22;67555;47.660;19.622;2023-07-29T07:34:47;24.70;82.30
78297;DHT22;67555;47.660;19.622;2023-07-29T07:37:13;24.80;80.90
78297;DHT22;67555;47.660;19.622;2023-07-29T07:39:39;25.00;77.60
78297;DHT22;67555;47.660;19.622;2023-07-29T07:42:05;25.00;78.70
78297;DHT22;67555;47.660;19.622;2023-07-29T07:44:31;25.20;78.60
78297;DHT22;67555;47.660;19.622;2023-07-29T07:46:56;25.30;78.20
78297;DHT22;67555;47.660;19.622;2023-07-29T07:49:22;25.40;75.00
78297;DHT22;67555;47.660;19.622;2023-07-29T07:51:48;25.50;72.40
78297;DHT22;67555;47.660;19.622;2023-07-29T07:54:14;25.60;73.30
78297;DHT22;67555;47.660;19.622;2023-07-29T07:56:40;25.60;75.60
78297;DHT22;67555;47.660;19.622;2023-07-29T07:59:06;25.80;76.40
78297;DHT22;67555;47.660;19.622;2023-07-29T08:01:35;26.00;77.00
78297;DHT22;67555;47.660;19.622;2023-07-29T08:04:02;26.00;75.90
78297;DHT22;67555;47.660;19.622;2023-07-29T08:06:28;26.00;73.20
78297;DHT22;67555;47.660;19.622;2023-07-29T08:08:53;26.10;73.10
78297;DHT22;67555;47.660;19.622;2023-07-29T08:11:20;26.10;72.50
78297;DHT22;67555;47.660;19.622;2023-07-29T08:13:46;26.20;72.50
78297;DHT22;67555;47.660;19.622;2023-07-29T08:16:12;26.20;71.40
78297;DHT22;67555;47.660;19.622;2023-07-29T08:18:39;26.20;71.60
78297;DHT22;67555;47.660;19.622;2023-07-29T08:21:04;26.40;70.10
78297;DHT22;67555;47.660;19.622;2023-07-29T08:23:32;26.40;69.90
78297;DHT22;67555;47.660;19.622;2023-07-29T08:25:59;26.40;67.20
78297;DHT22;67555;47.660;19.622;2023-07-29T08:28:38;26.50;66.40
78297;DHT22;67555;47.660;19.622;2023-07-29T08:31:05;26.60;66.50
78297;DHT22;67555;47.660;19.622;2023-07-29T08:33:31;26.60;65.20
78297;DHT22;67555;47.660;19.622;2023-07-29T08:35:59;26.70;65.70
78297;DHT22;67555;47.660;19.622;2023-07-29T08:38:25;26.70;66.50
78297;DHT22;67555;47.660;19.622;2023-07-29T08:41:10;26.80;68.50
78297;DHT22;67555;47.660;19.622;2023-07-29T08:43:38;26.90;68.50
78297;DHT22;67555;47.660;19.622;2023-07-29T08:46:05;27.00;67.00
78297;DHT22;67555;47.660;19.622;2023-07-29T08:48:42;27.00;64.60
78297;DHT22;67555;47.660;19.622;2023-07-29T08:51:09;27.10;64.00
78297;DHT22;67555;47.660;19.622;2023-07-29T08:53:38;27.10;64.00
78297;DHT22;67555;47.660;19.622;2023-07-29T08:56:04;27.20;63.10
78297;DHT22;67555;47.660;19.622;2023-07-29T08:58:31;27.30;61.70
78297;DHT22;67555;47.660;19.622;2023-07-29T09:00:57;27.30;58.90
78297;DHT22;67555;47.660;19.622;2023-07-29T09:03:23;27.30;58.60
78297;DHT22;67555;47.660;19.622;2023-07-29T09:05:49;27.30;57.60
78297;DHT22;67555;47.660;19.622;2023-07-29T09:08:15;27.40;57.20
78297;DHT22;67555;47.660;19.622;2023-07-29T09:10:41;27.40;57.20
78297;DHT22;67555;47.660;19.622;2023-07-29T09:13:07;27.50;56.90
78297;DHT22;67555;47.660;19.622;2023-07-29T09:15:36;27.60;54.90
78297;DHT22;67555;47.660;19.622;2023-07-29T09:18:10;27.70;56.00
78297;DHT22;67555;47.660;19.622;2023-07-29T09:20:36;27.80;56.70
78297;DHT22;67555;47.660;19.622;2023-07-29T09:23:02;28.00;56.60
78297;DHT22;67555;47.660;19.622;2023-07-29T09:25:29;28.10;57.10
78297;DHT22;67555;47.660;19.622;2023-07-29T09:28:02;28.20;56.40
78297;DHT22;67555;47.660;19.622;2023-07-29T09:30:32;28.20;56.20
78297;DHT22;67555;47.660;19.622;2023-07-29T09:32:58;28.20;53.40
78297;DHT22;67555;47.660;19.622;2023-07-29T09:35:27;28.20;53.50
78297;DHT22;67555;47.660;19.622;2023-07-29T09:37:53;28.30;54.10
78297;DHT22;67555;47.660;19.622;2023-07-29T09:40:19;28.50;53.70
78297;DHT22;67555;47.660;19.622;2023-07-29T09:42:53;28.50;53.30
78297;DHT22;67555;47.660;19.622;2023-07-29T09:45:28;28.60;51.80
78297;DHT22;67555;47.660;19.622;2023-07-29T09:47:55;28.70;52.90
78297;DHT22;67555;47.660;19.622;2023-07-29T09:50:26;28.90;53.00
78297;DHT22;67555;47.660;19.622;2023-07-29T09:52:54;29.00;53.00
78297;DHT22;67555;47.660;19.622;2023-07-29T09:55:21;29.10;51.20
78297;DHT22;67555;47.660;19.622;2023-07-29T09:57:56;29.10;50.30
78297;DHT22;67555;47.660;19.622;2023-07-29T10:00:23;29.20;49.20
78297;DHT22;67555;47.660;19.622;2023-07-29T10:02:49;29.20;48.90
78297;DHT22;67555;47.660;19.622;2023-07-29T10:05:16;29.30;48.30
78297;DHT22;67555;47.660;19.622;2023-07-29T10:07:42;29.30;47.50
78297;DHT22;67555;47.660;19.622;2023-07-29T10:10:08;29.20;47.70
78297;DHT22;67555;47.660;19.622;2023-07-29T10:12:35;29.20;48.00
78297;DHT22;67555;47.660;19.622;2023-07-29T10:15:05;29.20;48.00
78297;DHT22;67555;47.660;19.622;2023-07-29T10:17:34;29.30;48.40
78297;DHT22;67555;47.660;19.622;2023-07-29T10:20:01;29.40;48.90
78297;DHT22;67555;47.660;19.622;2023-07-29T10:22:29;29.50;48.50
78297;DHT22;67555;47.660;19.622;2023-07-29T10:25:07;29.50;46.30
78297;DHT22;67555;47.660;19.622;2023-07-29T10:27:47;29.50;47.10
78297;DHT22;67555;47.660;19.622;2023-07-29T10:30:15;29.40;46.10
78297;DHT22;67555;47.660;19.622;2023-07-29T10:32:43;29.40;46.70
78297;DHT22;67555;47.660;19.622;2023-07-29T10:35:11;29.50;47.00
78297;DHT22;67555;47.660;19.622;2023-07-29T10:37:37;29.50;46.60
78297;DHT22;67555;47.660;19.622;2023-07-29T10:40:07;29.70;46.60
78297;DHT22;67555;47.660;19.622;2023-07-29T10:42:33;29.90;46.40
78297;DHT22;67555;47.660;19.622;2023-07-29T10:44:59;29.90;45.90
78297;DHT22;67555;47.660;19.622;2023-07-29T10:47:28;29.90;44.90
78297;DHT22;67555;47.660;19.622;2023-07-29T10:49:58;29.90;44.70
78297;DHT22;67555;47.660;19.622;2023-07-29T10:52:40;30.00;44.30
78297;DHT22;67555;47.660;19.622;2023-07-29T10:55:29;30.00;44.30
78297;DHT22;67555;47.660;19.622;2023-07-29T10:58:15;30.00;43.10
78297;DHT22;67555;47.660;19.622;2023-07-29T11:00:45;30.00;43.40
78297;DHT22;67555;47.660;19.622;2023-07-29T11:03:12;30.10;43.90
78297;DHT22;67555;47.660;19.622;2023-07-29T11:05:43;30.10;41.70
78297;DHT22;67555;47.660;19.622;2023-07-29T11:08:37;30.10;41.40
78297;DHT22;67555;47.660;19.622;2023-07-29T11:11:04;30.10;41.00
78297;DHT22;67555;47.660;19.622;2023-07-29T11:13:31;30.00;40.10
78297;DHT22;67555;47.660;19.622;2023-07-29T11:15:58;30.00;41.00
78297;DHT22;67555;47.660;19.622;2023-07-29T11:18:32;30.00;41.20
78297;DHT22;67555;47.660;19.622;2023-07-29T11:21:00;30.10;41.40
78297;DHT22;67555;47.660;19.622;2023-07-29T11:23:32;30.30;42.20
78297;DHT22;67555;47.660;19.622;2023-07-29T11:25:59;30.60;42.00
78297;DHT22;67555;47.660;19.622;2023-07-29T11:28:26;30.70;41.70
78297;DHT22;67555;47.660;19.622;2023-07-29T11:30:52;30.80;41.90
78297;DHT22;67555;47.660;19.622;2023-07-29T11:33:20;30.70;39.50
78297;DHT22;67555;47.660;19.622;2023-07-29T11:35:47;30.50;39.70
78297;DHT22;67555;47.660;19.622;2023-07-29T11:38:17;30.40;40.10
78297;DHT22;67555;47.660;19.622;2023-07-29T11:40:53;30.50;40.70
78297;DHT22;67555;47.660;19.622;2023-07-29T11:43:18;30.50;40.80
78297;DHT22;67555;47.660;19.622;2023-07-29T11:45:45;30.70;40.80
78297;DHT22;67555;47.660;19.622;2023-07-29T11:48:10;30.80;41.20
78297;DHT22;67555;47.660;19.622;2023-07-29T11:50:36;31.00;39.20
78297;DHT22;67555;47.660;19.622;2023-07-29T11:53:03;30.80;39.50
78297;DHT22;67555;47.660;19.622;2023-07-29T11:55:28;30.70;40.00
78297;DHT22;67555;47.660;19.622;2023-07-29T11:57:55;30.60;40.20
78297;DHT22;67555;47.660;19.622;2023-07-29T12:00:21;30.50;40.70
78297;DHT22;67555;47.660;19.622;2023-07-29T12:02:47;30.60;41.10
78297;DHT22;67555;47.660;19.622;2023-07-29T12:05:15;30.50;40.70
78297;DHT22;67555;47.660;19.622;2023-07-29T12:07:42;30.50;40.60
78297;DHT22;67555;47.660;19.622;2023-07-29T12:10:09;30.60;40.70
78297;DHT22;67555;47.660;19.622;2023-07-29T12:12:50;30.60;40.00
78297;DHT22;67555;47.660;19.622;2023-07-29T12:15:29;30.60;40.00
78297;DHT22;67555;47.660;19.622;2023-07-29T12:17:59;30.50;39.50
78297;DHT22;67555;47.660;19.622;2023-07-29T12:20:29;30.50;40.20
78297;DHT22;67555;47.660;19.622;2023-07-29T12:23:01;30.50;39.70
78297;DHT22;67555;47.660;19.622;2023-07-29T12:25:28;30.50;40.30
78297;DHT22;67555;47.660;19.622;2023-07-29T12:27:54;30.50;40.60
78297;DHT22;67555;47.660;19.622;2023-07-29T12:30:23;30.50;41.00
78297;DHT22;67555;47.660;19.622;2023-07-29T12:32:50;30.80;41.40
78297;DHT22;67555;47.660;19.622;2023-07-29T13:09:24;30.90;42.00
78297;DHT22;67555;47.660;19.622;2023-07-29T13:11:50;32.40;38.60
78297;DHT22;67555;47.660;19.622;2023-07-29T13:14:15;33.00;38.80
78297;DHT22;67555;47.660;19.622;2023-07-29T13:16:41;33.50;38.10
78297;DHT22;67555;47.660;19.622;2023-07-29T13:19:07;33.90;35.90
78297;DHT22;67555;47.660;19.622;2023-07-29T13:21:32;33.70;33.50
78297;DHT22;67555;47.660;19.622;2023-07-29T13:23:58;33.30;33.40
78297;DHT22;67555;47.660;19.622;2023-07-29T13:26:24;32.80;34.20
78297;DHT22;67555;47.660;19.622;2023-07-29T13:28:49;32.50;35.30
78297;DHT22;67555;47.660;19.622;2023-07-29T13:31:15;32.20;35.70
78297;DHT22;67555;47.660;19.622;2023-07-29T13:33:41;32.00;36.30
78297;DHT22;67555;47.660;19.622;2023-07-29T13:36:06;32.00;37.10
78297;DHT22;67555;47.660;19.622;2023-07-29T13:38:33;31.90;36.60
78297;DHT22;67555;47.660;19.622;2023-07-29T13:40:59;31.70;36.80
78297;DHT22;67555;47.660;19.622;2023-07-29T13:43:25;31.60;37.30
78297;DHT22;67555;47.660;19.622;2023-07-29T13:45:51;31.40;37.30
78297;DHT22;67555;47.660;19.622;2023-07-29T13:48:17;31.20;38.20
78297;DHT22;67555;47.660;19.622;2023-07-29T13:50:43;31.30;38.40
78297;DHT22;67555;47.660;19.622;2023-07-29T13:53:09;31.30;38.90
78297;DHT22;67555;47.660;19.622;2023-07-29T13:55:35;31.40;39.30
78297;DHT22;67555;47.660;19.622;2023-07-29T13:58:00;31.40;39.30
78297;DHT22;67555;47.660;19.622;2023-07-29T14:00:26;31.30;39.30
78297;DHT22;67555;47.660;19.622;2023-07-29T14:02:52;31.30;38.90
78297;DHT22;67555;47.660;19.622;2023-07-29T14:05:19;31.30;39.20
78297;DHT22;67555;47.660;19.622;2023-07-29T14:07:45;31.40;39.10
78297;DHT22;67555;47.660;19.622;2023-07-29T14:10:10;31.40;39.30
78297;DHT22;67555;47.660;19.622;2023-07-29T14:12:36;31.50;39.30
78297;DHT22;67555;47.660;19.622;2023-07-29T14:15:02;31.50;39.00
78297;DHT22;67555;47.660;19.622;2023-07-29T14:17:28;31.50;39.10
78297;DHT22;67555;47.660;19.622;2023-07-29T14:19:54;31.60;39.10
78297;DHT22;67555;47.660;19.622;2023-07-29T14:22:20;31.70;39.00
78297;DHT22;67555;47.660;19.622;2023-07-29T14:24:45;31.70;39.00
78297;DHT22;67555;47.660;19.622;2023-07-29T14:27:11;31.70;39.00
78297;DHT22;67555;47.660;19.622;2023-07-29T14:29:37;31.80;39.00
78297;DHT22;67555;47.660;19.622;2023-07-29T14:32:03;31.90;38.70
78297;DHT22;67555;47.660;19.622;2023-07-29T14:34:28;32.00;38.60
78297;DHT22;67555;47.660;19.622;2023-07-29T14:36:54;32.00;37.60
78297;DHT22;67555;47.660;19.622;2023-07-29T14:39:20;32.00;37.10
78297;DHT22;67555;47.660;19.622;2023-07-29T14:41:46;32.00;37.40
78297;DHT22;67555;47.660;19.622;2023-07-29T14:44:12;32.20;37.50
78297;DHT22;67555;47.660;19.622;2023-07-29T14:46:38;32.20;37.10
78297;DHT22;67555;47.660;19.622;2023-07-29T14:49:04;32.20;36.60
78297;DHT22;67555;47.660;19.622;2023-07-29T14:51:29;32.10;35.60
78297;DHT22;67555;47.660;19.622;2023-07-29T14:53:56;31.90;36.30
78297;DHT22;67555;47.660;19.622;2023-07-29T14:56:21;31.80;36.50
78297;DHT22;67555;47.660;19.622;2023-07-29T14:58:47;31.70;37.20
78297;DHT22;67555;47.660;19.622;2023-07-29T15:01:14;31.80;37.70
78297;DHT22;67555;47.660;19.622;2023-07-29T15:03:40;31.80;37.50
78297;DHT22;67555;47.660;19.622;2023-07-29T15:06:06;31.60;37.40
78297;DHT22;67555;47.660;19.622;2023-07-29T15:08:31;31.50;38.00
78297;DHT22;67555;47.660;19.622;2023-07-29T15:10:57;31.50;37.90
78297;DHT22;67555;47.660;19.622;2023-07-29T15:13:23;31.40;38.00
78297;DHT22;67555;47.660;19.622;2023-07-29T15:15:48;31.50;37.90
78297;DHT22;67555;47.660;19.622;2023-07-29T15:18:16;31.40;36.80
78297;DHT22;67555;47.660;19.622;2023-07-29T15:20:43;31.30;37.30
78297;DHT22;67555;47.660;19.622;2023-07-29T15:23:09;31.30;37.30
78297;DHT22;67555;47.660;19.622;2023-07-29T15:25:35;31.40;37.20
78297;DHT22;67555;47.660;19.622;2023-07-29T15:28:00;31.50;37.30
78297;DHT22;67555;47.660;19.622;2023-07-29T15:30:27;31.40;37.40
78297;DHT22;67555;47.660;19.622;2023-07-29T15:32:53;31.30;37.30
78297;DHT22;67555;47.660;19.622;2023-07-29T15:35:21;31.10;37.00
78297;DHT22;67555;47.660;19.622;2023-07-29T15:37:46;30.90;37.10
78297;DHT22;67555;47.660;19.622;2023-07-29T15:40:13;30.70;36.90
78297;DHT22;67555;47.660;19.622;2023-07-29T15:42:38;30.60;36.90
78297;DHT22;67555;47.660;19.622;2023-07-29T15:45:04;30.50;37.20
78297;DHT22;67555;47.660;19.622;2023-07-29T15:47:31;30.50;37.10
78297;DHT22;67555;47.660;19.622;2023-07-29T15:49:57;30.40;37.20
78297;DHT22;67555;47.660;19.622;2023-07-29T15:52:23;30.30;37.40